createdAt,value
2023-03-02T00:17:45.135Z,0.63
2023-03-02T00:37:46.577Z,0.22
2023-03-02T00:57:48.368Z,0.03
2023-03-02T01:17:50.012Z,-0.15
2023-03-02T01:37:51.861Z,-0.44
2023-03-02T01:57:53.405Z,-0.66
2023-03-02T02:17:55.249Z,-0.80
2023-03-02T02:37:56.749Z,-0.61
2023-03-02T02:57:58.582Z,-0.78
2023-03-02T03:18:00.120Z,-0.99
2023-03-02T03:38:02.880Z,-1.27
2023-03-02T03:58:05.282Z,-1.32
2023-03-02T04:18:07.342Z,-1.60
2023-03-02T04:38:10.704Z,-1.87
2023-03-02T04:58:12.358Z,-1.89
2023-03-02T05:18:14.057Z,-1.88
2023-03-02T05:38:15.765Z,-1.67
2023-03-02T05:58:36.108Z,-0.91
2023-03-02T06:18:56.316Z,-0.62
2023-03-02T06:39:16.541Z,2.98
2023-03-02T06:59:40.174Z,4.79
2023-03-02T08:01:06.372Z,5.97
2023-03-02T08:41:43.626Z,5.72
2023-03-02T09:01:53.694Z,5.15
2023-03-02T09:22:08.065Z,5.44
2023-03-02T09:42:13.686Z,6.32
2023-03-02T10:02:18.092Z,7.05
2023-03-02T10:22:25.779Z,7.68
2023-03-02T10:42:30.238Z,8.27
2023-03-02T11:02:37.180Z,8.96
2023-03-02T11:22:38.796Z,9.04
2023-03-02T11:42:40.413Z,9.54
2023-03-02T12:02:41.934Z,9.65
2023-03-02T12:22:43.740Z,9.89
2023-03-02T14:47:17.986Z,10.21
2023-03-02T15:07:19.611Z,10.07
2023-03-02T15:27:21.045Z,9.97
2023-03-02T15:47:22.694Z,9.64
2023-03-02T16:07:24.125Z,8.82
2023-03-02T16:27:25.813Z,7.11
2023-03-02T16:47:45.426Z,6.77
2023-03-02T17:08:05.786Z,5.44
2023-03-02T17:28:25.779Z,4.93
2023-03-02T17:48:46.002Z,4.08
2023-03-02T18:09:06.216Z,3.84
2023-03-02T18:29:26.584Z,3.31
2023-03-02T18:49:31.105Z,3.36
2023-03-02T19:09:36.020Z,2.65
2023-03-02T19:29:38.775Z,2.41
2023-03-02T19:49:40.496Z,2.38
2023-03-02T20:09:41.925Z,1.53
2023-03-02T20:29:43.653Z,2.05
2023-03-02T20:49:46.530Z,1.61
2023-03-02T21:09:48.400Z,1.23
2023-03-02T21:29:50.109Z,1.07
2023-03-02T21:49:51.904Z,1.23
2023-03-02T22:09:53.536Z,1.25
2023-03-02T22:29:55.234Z,0.95
2023-03-02T22:49:56.727Z,0.52
2023-03-02T23:09:58.393Z,0.96
2023-03-02T23:30:18.221Z,0.77
2023-03-02T23:50:38.133Z,0.27
